sensor_id;sensor_type;location;lat;lon;timestamp;P1;durP1;ratioP1;P2;durP2;ratioP2
3873;SDS011;1952;50.872;6.692;2023-04-24T00:29:40;6.23;;;2.37;;
3873;SDS011;1952;50.872;6.692;2023-04-24T00:32:08;7.60;;;2.03;;
3873;SDS011;1952;50.872;6.692;2023-04-24T00:34:37;2.37;;;2.27;;
3873;SDS011;1952;50.872;6.692;2023-04-24T00:37:05;1.90;;;1.80;;
3873;SDS011;1952;50.872;6.692;2023-04-24T00:39:34;2.17;;;2.07;;
3873;SDS011;1952;50.872;6.692;2023-04-24T00:42:02;1.97;;;1.70;;
3873;SDS011;1952;50.872;6.692;2023-04-24T00:44:32;2.20;;;2.10;;
3873;SDS011;1952;50.872;6.692;2023-04-24T00:47:02;2.03;;;1.93;;
3873;SDS011;1952;50.872;6.692;2023-04-24T00:49:30;2.13;;;2.03;;
3873;SDS011;1952;50.872;6.692;2023-04-24T00:51:59;2.30;;;2.10;;
3873;SDS011;1952;50.872;6.692;2023-04-24T00:54:28;2.80;;;2.20;;
3873;SDS011;1952;50.872;6.692;2023-04-24T00:56:56;2.33;;;2.23;;
3873;SDS011;1952;50.872;6.692;2023-04-24T00:59:25;2.10;;;2.00;;
3873;SDS011;1952;50.872;6.692;2023-04-24T01:01:53;2.53;;;2.30;;
3873;SDS011;1952;50.872;6.692;2023-04-24T01:04:23;2.77;;;2.57;;
3873;SDS011;1952;50.872;6.692;2023-04-24T01:06:52;2.00;;;1.90;;
3873;SDS011;1952;50.872;6.692;2023-04-24T01:09:21;2.20;;;2.10;;
3873;SDS011;1952;50.872;6.692;2023-04-24T01:11:49;3.63;;;3.07;;
3873;SDS011;1952;50.872;6.692;2023-04-24T01:14:18;4.23;;;3.93;;
3873;SDS011;1952;50.872;6.692;2023-04-24T01:16:47;3.90;;;3.60;;
3873;SDS011;1952;50.872;6.692;2023-04-24T01:19:15;6.60;;;4.13;;
3873;SDS011;1952;50.872;6.692;2023-04-24T01:21:48;3.70;;;3.40;;
3873;SDS011;1952;50.872;6.692;2023-04-24T01:24:20;4.70;;;4.30;;
3873;SDS011;1952;50.872;6.692;2023-04-24T01:26:49;4.10;;;3.70;;
3873;SDS011;1952;50.872;6.692;2023-04-24T01:29:17;5.00;;;4.57;;
3873;SDS011;1952;50.872;6.692;2023-04-24T01:31:45;5.40;;;4.00;;
3873;SDS011;1952;50.872;6.692;2023-04-24T01:34:14;5.23;;;3.90;;
3873;SDS011;1952;50.872;6.692;2023-04-24T01:36:43;4.30;;;3.90;;
3873;SDS011;1952;50.872;6.692;2023-04-24T01:39:13;4.60;;;4.20;;
3873;SDS011;1952;50.872;6.692;2023-04-24T01:41:44;5.03;;;4.60;;
3873;SDS011;1952;50.872;6.692;2023-04-24T01:44:12;4.80;;;4.40;;
3873;SDS011;1952;50.872;6.692;2023-04-24T01:46:40;5.30;;;4.90;;
3873;SDS011;1952;50.872;6.692;2023-04-24T01:49:09;4.90;;;4.40;;
3873;SDS011;1952;50.872;6.692;2023-04-24T01:51:37;4.50;;;4.20;;
3873;SDS011;1952;50.872;6.692;2023-04-24T01:54:05;4.97;;;4.40;;
3873;SDS011;1952;50.872;6.692;2023-04-24T01:56:34;4.40;;;4.00;;
3873;SDS011;1952;50.872;6.692;2023-04-24T01:59:03;5.13;;;4.63;;
3873;SDS011;1952;50.872;6.692;2023-04-24T02:01:35;5.80;;;5.30;;
3873;SDS011;1952;50.872;6.692;2023-04-24T02:04:03;5.07;;;4.53;;
3873;SDS011;1952;50.872;6.692;2023-04-24T02:06:32;6.20;;;5.00;;
3873;SDS011;1952;50.872;6.692;2023-04-24T02:09:00;5.37;;;4.97;;
3873;SDS011;1952;50.872;6.692;2023-04-24T02:11:29;4.63;;;4.23;;
3873;SDS011;1952;50.872;6.692;2023-04-24T02:13:57;5.10;;;4.53;;
3873;SDS011;1952;50.872;6.692;2023-04-24T02:16:27;5.07;;;4.67;;
3873;SDS011;1952;50.872;6.692;2023-04-24T02:18:58;6.70;;;4.67;;
3873;SDS011;1952;50.872;6.692;2023-04-24T02:21:26;5.27;;;4.80;;
3873;SDS011;1952;50.872;6.692;2023-04-24T02:23:55;5.93;;;5.33;;
3873;SDS011;1952;50.872;6.692;2023-04-24T02:26:23;6.03;;;5.07;;
3873;SDS011;1952;50.872;6.692;2023-04-24T02:28:51;5.53;;;4.90;;
3873;SDS011;1952;50.872;6.692;2023-04-24T02:31:19;6.10;;;5.50;;
3873;SDS011;1952;50.872;6.692;2023-04-24T02:33:49;6.17;;;5.60;;
3873;SDS011;1952;50.872;6.692;2023-04-24T02:36:17;8.50;;;6.13;;
3873;SDS011;1952;50.872;6.692;2023-04-24T02:38:45;8.10;;;5.30;;
3873;SDS011;1952;50.872;6.692;2023-04-24T02:41:13;5.93;;;5.40;;
3873;SDS011;1952;50.872;6.692;2023-04-24T02:43:41;7.20;;;6.50;;
3873;SDS011;1952;50.872;6.692;2023-04-24T02:46:10;6.57;;;5.97;;
3873;SDS011;1952;50.872;6.692;2023-04-24T02:48:38;6.90;;;6.30;;
3873;SDS011;1952;50.872;6.692;2023-04-24T02:51:08;9.47;;;7.07;;
3873;SDS011;1952;50.872;6.692;2023-04-24T02:53:36;8.70;;;6.70;;
3873;SDS011;1952;50.872;6.692;2023-04-24T02:56:04;6.53;;;5.90;;
3873;SDS011;1952;50.872;6.692;2023-04-24T02:58:32;7.10;;;6.47;;
3873;SDS011;1952;50.872;6.692;2023-04-24T03:01:01;9.53;;;6.77;;
3873;SDS011;1952;50.872;6.692;2023-04-24T03:03:30;8.57;;;6.73;;
3873;SDS011;1952;50.872;6.692;2023-04-24T03:05:58;8.00;;;7.33;;
3873;SDS011;1952;50.872;6.692;2023-04-24T03:08:28;8.13;;;6.90;;
3873;SDS011;1952;50.872;6.692;2023-04-24T03:10:56;9.10;;;5.93;;
3873;SDS011;1952;50.872;6.692;2023-04-24T03:13:24;6.53;;;5.93;;
3873;SDS011;1952;50.872;6.692;2023-04-24T03:15:52;8.50;;;6.93;;
3873;SDS011;1952;50.872;6.692;2023-04-24T03:18:21;8.70;;;7.80;;
3873;SDS011;1952;50.872;6.692;2023-04-24T03:20:49;6.60;;;5.90;;
3873;SDS011;1952;50.872;6.692;2023-04-24T03:23:17;7.23;;;6.53;;
3873;SDS011;1952;50.872;6.692;2023-04-24T03:25:46;7.77;;;7.17;;
3873;SDS011;1952;50.872;6.692;2023-04-24T03:30:43;7.63;;;7.03;;
3873;SDS011;1952;50.872;6.692;2023-04-24T03:33:11;6.13;;;5.53;;
3873;SDS011;1952;50.872;6.692;2023-04-24T03:35:42;7.07;;;6.40;;
3873;SDS011;1952;50.872;6.692;2023-04-24T03:38:11;10.37;;;6.20;;
3873;SDS011;1952;50.872;6.692;2023-04-24T03:40:39;6.03;;;5.53;;
3873;SDS011;1952;50.872;6.692;2023-04-24T03:43:09;6.77;;;6.17;;
3873;SDS011;1952;50.872;6.692;2023-04-24T03:45:37;7.40;;;6.37;;
3873;SDS011;1952;50.872;6.692;2023-04-24T03:48:06;7.07;;;5.80;;
3873;SDS011;1952;50.872;6.692;2023-04-24T03:50:34;7.57;;;6.87;;
3873;SDS011;1952;50.872;6.692;2023-04-24T03:53:08;5.77;;;5.27;;
3873;SDS011;1952;50.872;6.692;2023-04-24T03:55:37;6.07;;;5.53;;
3873;SDS011;1952;50.872;6.692;2023-04-24T03:58:09;7.90;;;6.10;;
3873;SDS011;1952;50.872;6.692;2023-04-24T04:00:37;6.40;;;5.80;;
3873;SDS011;1952;50.872;6.692;2023-04-24T04:03:06;5.93;;;5.30;;
3873;SDS011;1952;50.872;6.692;2023-04-24T04:05:35;7.33;;;6.63;;
3873;SDS011;1952;50.872;6.692;2023-04-24T04:08:03;8.93;;;5.93;;
3873;SDS011;1952;50.872;6.692;2023-04-24T04:10:31;7.10;;;6.40;;
3873;SDS011;1952;50.872;6.692;2023-04-24T04:13:00;7.63;;;6.50;;
3873;SDS011;1952;50.872;6.692;2023-04-24T04:15:30;6.33;;;5.73;;
3873;SDS011;1952;50.872;6.692;2023-04-24T04:17:58;6.20;;;5.20;;
3873;SDS011;1952;50.872;6.692;2023-04-24T04:20:27;6.87;;;4.87;;
3873;SDS011;1952;50.872;6.692;2023-04-24T04:22:55;6.10;;;5.50;;
3873;SDS011;1952;50.872;6.692;2023-04-24T04:25:23;11.10;;;6.70;;
3873;SDS011;1952;50.872;6.692;2023-04-24T04:27:51;5.67;;;5.17;;
3873;SDS011;1952;50.872;6.692;2023-04-24T04:30:20;5.80;;;5.30;;
3873;SDS011;1952;50.872;6.692;2023-04-24T04:32:50;6.17;;;5.07;;
3873;SDS011;1952;50.872;6.692;2023-04-24T04:35:19;6.57;;;5.43;;
3873;SDS011;1952;50.872;6.692;2023-04-24T04:37:48;6.90;;;4.90;;
3873;SDS011;1952;50.872;6.692;2023-04-24T04:40:17;5.30;;;4.80;;
3873;SDS011;1952;50.872;6.692;2023-04-24T04:42:45;7.00;;;5.93;;
3873;SDS011;1952;50.872;6.692;2023-04-24T04:45:14;4.67;;;4.20;;
3873;SDS011;1952;50.872;6.692;2023-04-24T04:47:43;4.37;;;4.07;;
3873;SDS011;1952;50.872;6.692;2023-04-24T04:50:13;4.60;;;4.20;;
3873;SDS011;1952;50.872;6.692;2023-04-24T04:52:42;5.63;;;5.00;;
3873;SDS011;1952;50.872;6.692;2023-04-24T04:55:11;5.10;;;4.60;;
3873;SDS011;1952;50.872;6.692;2023-04-24T04:57:41;6.80;;;5.37;;
3873;SDS011;1952;50.872;6.692;2023-04-24T05:00:09;5.57;;;4.90;;
3873;SDS011;1952;50.872;6.692;2023-04-24T05:02:38;5.30;;;4.47;;
3873;SDS011;1952;50.872;6.692;2023-04-24T05:05:07;7.90;;;4.33;;
3873;SDS011;1952;50.872;6.692;2023-04-24T05:07:37;5.47;;;4.53;;
3873;SDS011;1952;50.872;6.692;2023-04-24T05:10:06;5.73;;;5.23;;
3873;SDS011;1952;50.872;6.692;2023-04-24T05:12:34;5.83;;;5.33;;
3873;SDS011;1952;50.872;6.692;2023-04-24T05:15:03;6.10;;;5.50;;
3873;SDS011;1952;50.872;6.692;2023-04-24T05:17:31;5.10;;;4.70;;
3873;SDS011;1952;50.872;6.692;2023-04-24T05:20:00;6.20;;;5.23;;
3873;SDS011;1952;50.872;6.692;2023-04-24T05:22:29;4.70;;;4.30;;
3873;SDS011;1952;50.872;6.692;2023-04-24T05:24:59;6.10;;;4.57;;
3873;SDS011;1952;50.872;6.692;2023-04-24T05:27:28;6.47;;;5.87;;
3873;SDS011;1952;50.872;6.692;2023-04-24T05:29:57;6.00;;;5.50;;
3873;SDS011;1952;50.872;6.692;2023-04-24T05:32:25;8.23;;;5.90;;
3873;SDS011;1952;50.872;6.692;2023-04-24T05:34:54;5.10;;;4.70;;
3873;SDS011;1952;50.872;6.692;2023-04-24T05:37:22;6.60;;;5.37;;
3873;SDS011;1952;50.872;6.692;2023-04-24T05:39:53;10.03;;;4.33;;
3873;SDS011;1952;50.872;6.692;2023-04-24T05:42:23;7.77;;;6.30;;
3873;SDS011;1952;50.872;6.692;2023-04-24T05:44:51;6.33;;;4.90;;
3873;SDS011;1952;50.872;6.692;2023-04-24T05:47:23;4.37;;;3.97;;
3873;SDS011;1952;50.872;6.692;2023-04-24T05:49:52;4.67;;;4.00;;
3873;SDS011;1952;50.872;6.692;2023-04-24T06:31:31;2.43;;;2.00;;
3873;SDS011;1952;50.872;6.692;2023-04-24T06:34:04;5.33;;;2.80;;
3873;SDS011;1952;50.872;6.692;2023-04-24T06:36:47;3.00;;;2.70;;
3873;SDS011;1952;50.872;6.692;2023-04-24T06:39:15;2.13;;;2.03;;
3873;SDS011;1952;50.872;6.692;2023-04-24T06:41:47;3.33;;;2.63;;
3873;SDS011;1952;50.872;6.692;2023-04-24T06:44:16;2.40;;;2.30;;
3873;SDS011;1952;50.872;6.692;2023-04-24T06:46:50;3.40;;;2.40;;
3873;SDS011;1952;50.872;6.692;2023-04-24T06:49:32;2.70;;;2.50;;
3873;SDS011;1952;50.872;6.692;2023-04-24T06:52:10;2.37;;;2.27;;
3873;SDS011;1952;50.872;6.692;2023-04-24T06:54:43;2.80;;;2.17;;
3873;SDS011;1952;50.872;6.692;2023-04-24T06:57:14;2.80;;;2.60;;
3873;SDS011;1952;50.872;6.692;2023-04-24T06:59:44;3.40;;;2.63;;
3873;SDS011;1952;50.872;6.692;2023-04-24T07:02:16;2.70;;;2.50;;
3873;SDS011;1952;50.872;6.692;2023-04-24T07:04:44;2.53;;;2.33;;
3873;SDS011;1952;50.872;6.692;2023-04-24T07:07:33;3.47;;;2.93;;
3873;SDS011;1952;50.872;6.692;2023-04-24T07:10:15;3.10;;;2.90;;
3873;SDS011;1952;50.872;6.692;2023-04-24T07:12:46;2.80;;;2.60;;
3873;SDS011;1952;50.872;6.692;2023-04-24T07:15:25;2.83;;;2.50;;
3873;SDS011;1952;50.872;6.692;2023-04-24T07:21:26;2.63;;;2.43;;
3873;SDS011;1952;50.872;6.692;2023-04-24T07:24:09;2.57;;;2.37;;
3873;SDS011;1952;50.872;6.692;2023-04-24T07:26:40;3.30;;;3.00;;
3873;SDS011;1952;50.872;6.692;2023-04-24T07:29:11;4.50;;;2.60;;
3873;SDS011;1952;50.872;6.692;2023-04-24T07:31:52;2.30;;;2.10;;
3873;SDS011;1952;50.872;6.692;2023-04-24T07:34:48;2.67;;;2.47;;
3873;SDS011;1952;50.872;6.692;2023-04-24T07:37:36;1.80;;;1.70;;
3873;SDS011;1952;50.872;6.692;2023-04-24T07:40:35;2.33;;;2.10;;
3873;SDS011;1952;50.872;6.692;2023-04-24T07:43:31;2.10;;;2.00;;
3873;SDS011;1952;50.872;6.692;2023-04-24T07:46:09;1.73;;;1.63;;
3873;SDS011;1952;50.872;6.692;2023-04-24T07:48:53;2.40;;;2.30;;
3873;SDS011;1952;50.872;6.692;2023-04-24T07:51:39;3.83;;;2.23;;
3873;SDS011;1952;50.872;6.692;2023-04-24T07:54:28;2.30;;;2.10;;
3873;SDS011;1952;50.872;6.692;2023-04-24T07:56:57;2.37;;;2.27;;
3873;SDS011;1952;50.872;6.692;2023-04-24T07:59:28;3.13;;;2.93;;
3873;SDS011;1952;50.872;6.692;2023-04-24T08:01:58;5.73;;;3.07;;
3873;SDS011;1952;50.872;6.692;2023-04-24T08:04:28;2.70;;;2.50;;
3873;SDS011;1952;50.872;6.692;2023-04-24T08:06:57;3.90;;;2.43;;
3873;SDS011;1952;50.872;6.692;2023-04-24T08:09:30;2.93;;;2.70;;
3873;SDS011;1952;50.872;6.692;2023-04-24T08:11:59;2.10;;;1.90;;
3873;SDS011;1952;50.872;6.692;2023-04-24T08:14:30;2.90;;;2.07;;
3873;SDS011;1952;50.872;6.692;2023-04-24T08:17:08;2.10;;;2.00;;
3873;SDS011;1952;50.872;6.692;2023-04-24T08:19:39;3.30;;;2.33;;
3873;SDS011;1952;50.872;6.692;2023-04-24T08:22:16;2.30;;;2.10;;
3873;SDS011;1952;50.872;6.692;2023-04-24T08:25:19;2.50;;;2.30;;
3873;SDS011;1952;50.872;6.692;2023-04-24T08:28:01;2.43;;;2.10;;
3873;SDS011;1952;50.872;6.692;2023-04-24T08:30:31;2.20;;;2.10;;
3873;SDS011;1952;50.872;6.692;2023-04-24T08:33:16;5.77;;;3.47;;
3873;SDS011;1952;50.872;6.692;2023-04-24T08:35:57;2.53;;;2.20;;
3873;SDS011;1952;50.872;6.692;2023-04-24T08:38:53;2.20;;;2.00;;
3873;SDS011;1952;50.872;6.692;2023-04-24T08:41:24;2.87;;;2.67;;
3873;SDS011;1952;50.872;6.692;2023-04-24T08:44:01;3.40;;;2.60;;
3873;SDS011;1952;50.872;6.692;2023-04-24T08:46:44;3.27;;;2.97;;
3873;SDS011;1952;50.872;6.692;2023-04-24T08:49:17;2.80;;;2.60;;
3873;SDS011;1952;50.872;6.692;2023-04-24T08:52:00;3.40;;;3.10;;
3873;SDS011;1952;50.872;6.692;2023-04-24T08:54:28;3.60;;;3.37;;
3873;SDS011;1952;50.872;6.692;2023-04-24T08:57:02;4.20;;;3.47;;
3873;SDS011;1952;50.872;6.692;2023-04-24T08:59:34;3.30;;;3.00;;
3873;SDS011;1952;50.872;6.692;2023-04-24T09:02:04;4.03;;;3.70;;
3873;SDS011;1952;50.872;6.692;2023-04-24T09:04:33;6.10;;;3.70;;
3873;SDS011;1952;50.872;6.692;2023-04-24T09:07:23;3.30;;;3.07;;
3873;SDS011;1952;50.872;6.692;2023-04-24T09:10:07;3.83;;;3.53;;
3873;SDS011;1952;50.872;6.692;2023-04-24T09:12:38;4.47;;;3.40;;
3873;SDS011;1952;50.872;6.692;2023-04-24T09:15:07;3.73;;;3.50;;
3873;SDS011;1952;50.872;6.692;2023-04-24T09:17:38;3.33;;;3.03;;
3873;SDS011;1952;50.872;6.692;2023-04-24T09:20:08;3.10;;;2.80;;
3873;SDS011;1952;50.872;6.692;2023-04-24T09:22:36;6.20;;;4.63;;
3873;SDS011;1952;50.872;6.692;2023-04-24T09:25:05;4.90;;;4.33;;
3873;SDS011;1952;50.872;6.692;2023-04-24T09:27:42;5.40;;;3.80;;
3873;SDS011;1952;50.872;6.692;2023-04-24T09:30:11;4.23;;;3.83;;
3873;SDS011;1952;50.872;6.692;2023-04-24T09:32:41;5.83;;;4.27;;
3873;SDS011;1952;50.872;6.692;2023-04-24T09:35:11;5.60;;;4.80;;
3873;SDS011;1952;50.872;6.692;2023-04-24T09:37:40;6.70;;;4.20;;
3873;SDS011;1952;50.872;6.692;2023-04-24T09:40:11;7.33;;;4.40;;
3873;SDS011;1952;50.872;6.692;2023-04-24T09:42:44;3.53;;;3.23;;
3873;SDS011;1952;50.872;6.692;2023-04-24T09:45:13;5.67;;;3.40;;
3873;SDS011;1952;50.872;6.692;2023-04-24T09:47:42;5.60;;;4.03;;
3873;SDS011;1952;50.872;6.692;2023-04-24T09:50:12;4.60;;;3.87;;
3873;SDS011;1952;50.872;6.692;2023-04-24T09:52:55;4.60;;;3.93;;
3873;SDS011;1952;50.872;6.692;2023-04-24T09:55:25;4.03;;;3.67;;
3873;SDS011;1952;50.872;6.692;2023-04-24T09:57:56;4.67;;;4.17;;
3873;SDS011;1952;50.872;6.692;2023-04-24T10:00:28;3.77;;;3.47;;
3873;SDS011;1952;50.872;6.692;2023-04-24T10:03:00;3.57;;;3.00;;
3873;SDS011;1952;50.872;6.692;2023-04-24T10:05:31;4.10;;;3.70;;
3873;SDS011;1952;50.872;6.692;2023-04-24T10:08:04;4.73;;;3.67;;
3873;SDS011;1952;50.872;6.692;2023-04-24T10:10:33;4.30;;;3.70;;
3873;SDS011;1952;50.872;6.692;2023-04-24T10:13:07;4.57;;;4.03;;
3873;SDS011;1952;50.872;6.692;2023-04-24T10:15:42;6.20;;;3.97;;
3873;SDS011;1952;50.872;6.692;2023-04-24T10:18:20;6.10;;;3.40;;
3873;SDS011;1952;50.872;6.692;2023-04-24T10:20:49;9.27;;;4.37;;
3873;SDS011;1952;50.872;6.692;2023-04-24T10:23:21;4.47;;;4.07;;
3873;SDS011;1952;50.872;6.692;2023-04-24T10:25:54;7.20;;;4.70;;
3873;SDS011;1952;50.872;6.692;2023-04-24T10:28:25;5.40;;;4.10;;
3873;SDS011;1952;50.872;6.692;2023-04-24T10:30:54;6.57;;;4.27;;
3873;SDS011;1952;50.872;6.692;2023-04-24T10:33:25;8.27;;;4.33;;
3873;SDS011;1952;50.872;6.692;2023-04-24T10:35:57;6.73;;;4.10;;
3873;SDS011;1952;50.872;6.692;2023-04-24T10:38:34;4.70;;;4.30;;
3873;SDS011;1952;50.872;6.692;2023-04-24T10:41:07;8.13;;;3.50;;
3873;SDS011;1952;50.872;6.692;2023-04-24T10:43:40;6.37;;;4.00;;
3873;SDS011;1952;50.872;6.692;2023-04-24T10:46:10;6.03;;;4.27;;
3873;SDS011;1952;50.872;6.692;2023-04-24T10:48:42;6.80;;;5.10;;
3873;SDS011;1952;50.872;6.692;2023-04-24T10:51:12;5.30;;;4.90;;
3873;SDS011;1952;50.872;6.692;2023-04-24T10:53:43;7.17;;;4.10;;
3873;SDS011;1952;50.872;6.692;2023-04-24T10:56:15;7.07;;;4.50;;
3873;SDS011;1952;50.872;6.692;2023-04-24T10:58:49;5.20;;;4.77;;
3873;SDS011;1952;50.872;6.692;2023-04-24T11:01:26;4.80;;;4.40;;
3873;SDS011;1952;50.872;6.692;2023-04-24T11:03:55;7.60;;;5.67;;
3873;SDS011;1952;50.872;6.692;2023-04-24T11:06:31;9.10;;;5.97;;
3873;SDS011;1952;50.872;6.692;2023-04-24T11:09:03;6.67;;;4.50;;
3873;SDS011;1952;50.872;6.692;2023-04-24T11:11:33;4.93;;;4.03;;
3873;SDS011;1952;50.872;6.692;2023-04-24T11:14:07;7.23;;;4.30;;
3873;SDS011;1952;50.872;6.692;2023-04-24T11:16:44;4.73;;;3.80;;
3873;SDS011;1952;50.872;6.692;2023-04-24T11:19:18;10.47;;;4.63;;
3873;SDS011;1952;50.872;6.692;2023-04-24T11:21:47;7.50;;;4.20;;
3873;SDS011;1952;50.872;6.692;2023-04-24T11:24:28;7.73;;;4.33;;
3873;SDS011;1952;50.872;6.692;2023-04-24T11:26:58;5.50;;;4.00;;
3873;SDS011;1952;50.872;6.692;2023-04-24T11:29:41;4.63;;;4.23;;
3873;SDS011;1952;50.872;6.692;2023-04-24T11:32:24;4.30;;;3.90;;
3873;SDS011;1952;50.872;6.692;2023-04-24T11:34:54;5.50;;;4.03;;
3873;SDS011;1952;50.872;6.692;2023-04-24T11:37:25;4.30;;;3.80;;
3873;SDS011;1952;50.872;6.692;2023-04-24T11:39:57;5.60;;;4.20;;
3873;SDS011;1952;50.872;6.692;2023-04-24T11:42:29;8.77;;;5.47;;
3873;SDS011;1952;50.872;6.692;2023-04-24T11:45:07;6.40;;;4.50;;
3873;SDS011;1952;50.872;6.692;2023-04-24T11:47:37;5.20;;;4.80;;
3873;SDS011;1952;50.872;6.692;2023-04-24T11:50:07;6.30;;;4.97;;
3873;SDS011;1952;50.872;6.692;2023-04-24T11:52:39;6.20;;;5.30;;
3873;SDS011;1952;50.872;6.692;2023-04-24T12:32:45;8.00;;;5.63;;
3873;SDS011;1952;50.872;6.692;2023-04-24T12:35:21;5.20;;;4.70;;
3873;SDS011;1952;50.872;6.692;2023-04-24T12:37:55;5.73;;;4.40;;
3873;SDS011;1952;50.872;6.692;2023-04-24T12:40:24;8.10;;;4.60;;
3873;SDS011;1952;50.872;6.692;2023-04-24T12:42:55;5.23;;;4.77;;
3873;SDS011;1952;50.872;6.692;2023-04-24T12:45:27;6.13;;;5.50;;
3873;SDS011;1952;50.872;6.692;2023-04-24T12:48:01;6.53;;;4.77;;
3873;SDS011;1952;50.872;6.692;2023-04-24T12:50:38;8.40;;;5.10;;
3873;SDS011;1952;50.872;6.692;2023-04-24T12:53:09;6.20;;;4.53;;
3873;SDS011;1952;50.872;6.692;2023-04-24T12:55:38;11.27;;;7.57;;
3873;SDS011;1952;50.872;6.692;2023-04-24T12:58:06;9.37;;;5.97;;
3873;SDS011;1952;50.872;6.692;2023-04-24T13:00:35;12.90;;;6.30;;
3873;SDS011;1952;50.872;6.692;2023-04-24T13:03:06;6.80;;;5.53;;
3873;SDS011;1952;50.872;6.692;2023-04-24T13:05:35;8.30;;;5.43;;
3873;SDS011;1952;50.872;6.692;2023-04-24T13:08:03;9.37;;;6.20;;
3873;SDS011;1952;50.872;6.692;2023-04-24T13:10:31;12.23;;;5.60;;
3873;SDS011;1952;50.872;6.692;2023-04-24T13:13:00;8.97;;;6.30;;
3873;SDS011;1952;50.872;6.692;2023-04-24T13:15:28;7.70;;;7.00;;
3873;SDS011;1952;50.872;6.692;2023-04-24T13:17:57;12.97;;;6.10;;
3873;SDS011;1952;50.872;6.692;2023-04-24T13:20:26;6.53;;;5.93;;
3873;SDS011;1952;50.872;6.692;2023-04-24T13:23:02;7.63;;;6.77;;
3873;SDS011;1952;50.872;6.692;2023-04-24T13:25:35;6.87;;;6.07;;
3873;SDS011;1952;50.872;6.692;2023-04-24T13:28:07;8.13;;;5.80;;
3873;SDS011;1952;50.872;6.692;2023-04-24T13:30:36;8.27;;;7.43;;
3873;SDS011;1952;50.872;6.692;2023-04-24T13:33:04;7.30;;;5.80;;
3873;SDS011;1952;50.872;6.692;2023-04-24T13:35:34;6.73;;;6.17;;
3873;SDS011;1952;50.872;6.692;2023-04-24T13:38:03;7.87;;;5.80;;
3873;SDS011;1952;50.872;6.692;2023-04-24T13:40:32;8.17;;;5.93;;
3873;SDS011;1952;50.872;6.692;2023-04-24T13:43:01;6.03;;;5.47;;
3873;SDS011;1952;50.872;6.692;2023-04-24T13:45:31;7.63;;;5.90;;
3873;SDS011;1952;50.872;6.692;2023-04-24T13:47:59;6.73;;;5.87;;
3873;SDS011;1952;50.872;6.692;2023-04-24T13:50:29;10.10;;;5.90;;
3873;SDS011;1952;50.872;6.692;2023-04-24T13:52:59;9.33;;;5.70;;
3873;SDS011;1952;50.872;6.692;2023-04-24T13:55:28;9.27;;;6.13;;
3873;SDS011;1952;50.872;6.692;2023-04-24T13:57:57;6.87;;;6.20;;
3873;SDS011;1952;50.872;6.692;2023-04-24T14:00:25;7.13;;;5.93;;
3873;SDS011;1952;50.872;6.692;2023-04-24T14:02:54;6.27;;;5.27;;
3873;SDS011;1952;50.872;6.692;2023-04-24T14:05:23;6.57;;;5.97;;
3873;SDS011;1952;50.872;6.692;2023-04-24T14:07:52;6.27;;;5.67;;
3873;SDS011;1952;50.872;6.692;2023-04-24T14:10:22;6.33;;;5.53;;
3873;SDS011;1952;50.872;6.692;2023-04-24T14:12:53;6.50;;;5.90;;
3873;SDS011;1952;50.872;6.692;2023-04-24T14:15:22;5.53;;;4.93;;
3873;SDS011;1952;50.872;6.692;2023-04-24T14:17:50;6.17;;;5.57;;
3873;SDS011;1952;50.872;6.692;2023-04-24T14:20:19;6.47;;;5.23;;
3873;SDS011;1952;50.872;6.692;2023-04-24T14:22:49;7.20;;;6.20;;
3873;SDS011;1952;50.872;6.692;2023-04-24T14:25:17;10.17;;;5.53;;
3873;SDS011;1952;50.872;6.692;2023-04-24T14:27:50;6.40;;;5.80;;
3873;SDS011;1952;50.872;6.692;2023-04-24T14:30:21;5.37;;;4.87;;
3873;SDS011;1952;50.872;6.692;2023-04-24T14:32:49;6.27;;;5.13;;
3873;SDS011;1952;50.872;6.692;2023-04-24T14:35:17;8.20;;;5.90;;
3873;SDS011;1952;50.872;6.692;2023-04-24T14:37:46;9.70;;;6.43;;
3873;SDS011;1952;50.872;6.692;2023-04-24T14:40:14;5.37;;;4.90;;
3873;SDS011;1952;50.872;6.692;2023-04-24T14:43:04;5.87;;;5.30;;
3873;SDS011;1952;50.872;6.692;2023-04-24T14:45:34;7.00;;;6.30;;
3873;SDS011;1952;50.872;6.692;2023-04-24T14:48:04;5.77;;;5.07;;
3873;SDS011;1952;50.872;6.692;2023-04-24T14:50:34;5.80;;;4.93;;
3873;SDS011;1952;50.872;6.692;2023-04-24T14:53:02;7.10;;;5.50;;
3873;SDS011;1952;50.872;6.692;2023-04-24T14:55:31;6.67;;;6.07;;
3873;SDS011;1952;50.872;6.692;2023-04-24T14:58:00;8.17;;;5.33;;
3873;SDS011;1952;50.872;6.692;2023-04-24T15:00:33;7.67;;;5.53;;
3873;SDS011;1952;50.872;6.692;2023-04-24T15:03:01;5.33;;;4.87;;
3873;SDS011;1952;50.872;6.692;2023-04-24T15:05:29;5.60;;;4.77;;
3873;SDS011;1952;50.872;6.692;2023-04-24T15:07:58;7.00;;;5.23;;
3873;SDS011;1952;50.872;6.692;2023-04-24T15:10:26;6.23;;;5.63;;
3873;SDS011;1952;50.872;6.692;2023-04-24T15:12:55;6.27;;;4.80;;
3873;SDS011;1952;50.872;6.692;2023-04-24T15:15:24;8.40;;;5.80;;
3873;SDS011;1952;50.872;6.692;2023-04-24T15:17:53;6.63;;;5.93;;
3873;SDS011;1952;50.872;6.692;2023-04-24T15:20:22;12.10;;;6.00;;
3873;SDS011;1952;50.872;6.692;2023-04-24T15:22:50;10.80;;;4.83;;
3873;SDS011;1952;50.872;6.692;2023-04-24T15:25:19;6.57;;;5.00;;
3873;SDS011;1952;50.872;6.692;2023-04-24T15:27:47;10.00;;;6.23;;
3873;SDS011;1952;50.872;6.692;2023-04-24T15:30:16;5.93;;;5.37;;
3873;SDS011;1952;50.872;6.692;2023-04-24T15:32:45;6.50;;;4.97;;
3873;SDS011;1952;50.872;6.692;2023-04-24T15:35:22;9.07;;;5.60;;
3873;SDS011;1952;50.872;6.692;2023-04-24T15:37:51;9.93;;;4.90;;
3873;SDS011;1952;50.872;6.692;2023-04-24T15:40:20;6.43;;;5.40;;
3873;SDS011;1952;50.872;6.692;2023-04-24T15:42:52;8.30;;;5.10;;
3873;SDS011;1952;50.872;6.692;2023-04-24T15:45:21;5.93;;;5.10;;
3873;SDS011;1952;50.872;6.692;2023-04-24T15:47:50;8.50;;;5.23;;
3873;SDS011;1952;50.872;6.692;2023-04-24T15:50:20;6.70;;;5.60;;
3873;SDS011;1952;50.872;6.692;2023-04-24T15:52:50;5.33;;;4.43;;
3873;SDS011;1952;50.872;6.692;2023-04-24T15:55:18;7.93;;;5.93;;
3873;SDS011;1952;50.872;6.692;2023-04-24T15:57:47;5.40;;;4.90;;
3873;SDS011;1952;50.872;6.692;2023-04-24T16:00:19;6.10;;;5.47;;
3873;SDS011;1952;50.872;6.692;2023-04-24T16:02:48;5.23;;;4.73;;
3873;SDS011;1952;50.872;6.692;2023-04-24T16:05:17;6.00;;;5.40;;
3873;SDS011;1952;50.872;6.692;2023-04-24T16:07:47;9.70;;;5.87;;
3873;SDS011;1952;50.872;6.692;2023-04-24T16:10:18;5.47;;;5.07;;
3873;SDS011;1952;50.872;6.692;2023-04-24T16:12:46;5.13;;;4.73;;
3873;SDS011;1952;50.872;6.692;2023-04-24T16:15:17;6.97;;;5.57;;
3873;SDS011;1952;50.872;6.692;2023-04-24T16:17:45;5.80;;;5.30;;
3873;SDS011;1952;50.872;6.692;2023-04-24T16:20:25;6.43;;;5.00;;
3873;SDS011;1952;50.872;6.692;2023-04-24T16:22:53;5.67;;;4.87;;
3873;SDS011;1952;50.872;6.692;2023-04-24T16:25:29;8.30;;;5.00;;
3873;SDS011;1952;50.872;6.692;2023-04-24T16:27:57;4.73;;;4.33;;
3873;SDS011;1952;50.872;6.692;2023-04-24T16:30:28;6.00;;;4.93;;
3873;SDS011;1952;50.872;6.692;2023-04-24T16:32:57;5.40;;;4.90;;
3873;SDS011;1952;50.872;6.692;2023-04-24T16:35:42;5.47;;;4.23;;
3873;SDS011;1952;50.872;6.692;2023-04-24T16:38:11;6.07;;;4.80;;
3873;SDS011;1952;50.872;6.692;2023-04-24T16:40:41;5.23;;;4.53;;
3873;SDS011;1952;50.872;6.692;2023-04-24T16:43:10;5.40;;;4.63;;
3873;SDS011;1952;50.872;6.692;2023-04-24T16:45:38;5.70;;;5.27;;
3873;SDS011;1952;50.872;6.692;2023-04-24T16:48:06;4.70;;;4.27;;
3873;SDS011;1952;50.872;6.692;2023-04-24T16:50:36;5.17;;;4.73;;
3873;SDS011;1952;50.872;6.692;2023-04-24T16:53:06;5.57;;;4.50;;
3873;SDS011;1952;50.872;6.692;2023-04-24T16:55:37;4.80;;;4.30;;
3873;SDS011;1952;50.872;6.692;2023-04-24T16:58:09;5.07;;;4.63;;
3873;SDS011;1952;50.872;6.692;2023-04-24T17:00:37;7.00;;;4.60;;
3873;SDS011;1952;50.872;6.692;2023-04-24T17:03:05;6.30;;;4.93;;
3873;SDS011;1952;50.872;6.692;2023-04-24T17:05:37;5.10;;;4.60;;
3873;SDS011;1952;50.872;6.692;2023-04-24T17:08:05;5.83;;;4.80;;
3873;SDS011;1952;50.872;6.692;2023-04-24T17:10:34;7.03;;;4.80;;
3873;SDS011;1952;50.872;6.692;2023-04-24T17:13:03;7.43;;;4.13;;
3873;SDS011;1952;50.872;6.692;2023-04-24T17:15:32;4.70;;;3.63;;
3873;SDS011;1952;50.872;6.692;2023-04-24T17:18:04;4.23;;;3.83;;
3873;SDS011;1952;50.872;6.692;2023-04-24T17:20:33;4.30;;;3.83;;
3873;SDS011;1952;50.872;6.692;2023-04-24T17:23:01;4.47;;;4.07;;
3873;SDS011;1952;50.872;6.692;2023-04-24T17:25:30;5.10;;;4.10;;
3873;SDS011;1952;50.872;6.692;2023-04-24T17:27:58;4.93;;;4.37;;
3873;SDS011;1952;50.872;6.692;2023-04-24T17:30:27;4.57;;;3.60;;